sensor_id;sensor_type;location;lat;lon;timestamp;P1;durP1;ratioP1;P2;durP2;ratioP2
64857;SDS011;51335;51.148;6.950;2023-01-29T00:00:10;51.42;;;29.08;;
64857;SDS011;51335;51.148;6.950;2023-01-29T00:00:41;52.83;;;29.58;;
64857;SDS011;51335;51.148;6.950;2023-01-29T00:01:11;49.85;;;28.88;;
64857;SDS011;51335;51.148;6.950;2023-01-29T00:01:41;49.25;;;27.65;;
64857;SDS011;51335;51.148;6.950;2023-01-29T00:02:11;47.15;;;28.25;;
64857;SDS011;51335;51.148;6.950;2023-01-29T00:02:42;55.08;;;28.70;;
64857;SDS011;51335;51.148;6.950;2023-01-29T00:03:12;51.92;;;28.05;;
64857;SDS011;51335;51.148;6.950;2023-01-29T00:03:42;53.03;;;28.85;;
64857;SDS011;51335;51.148;6.950;2023-01-29T00:04:12;52.85;;;28.70;;
64857;SDS011;51335;51.148;6.950;2023-01-29T00:04:43;57.00;;;30.33;;
64857;SDS011;51335;51.148;6.950;2023-01-29T00:05:13;52.08;;;27.45;;
64857;SDS011;51335;51.148;6.950;2023-01-29T00:05:44;49.97;;;29.05;;
64857;SDS011;51335;51.148;6.950;2023-01-29T00:06:14;49.05;;;29.10;;
64857;SDS011;51335;51.148;6.950;2023-01-29T00:06:44;54.78;;;29.73;;
64857;SDS011;51335;51.148;6.950;2023-01-29T00:07:14;53.95;;;30.00;;
64857;SDS011;51335;51.148;6.950;2023-01-29T00:07:45;52.40;;;29.15;;
64857;SDS011;51335;51.148;6.950;2023-01-29T00:08:15;53.70;;;29.65;;
64857;SDS011;51335;51.148;6.950;2023-01-29T00:08:45;48.47;;;28.83;;
64857;SDS011;51335;51.148;6.950;2023-01-29T00:09:16;51.30;;;29.23;;
64857;SDS011;51335;51.148;6.950;2023-01-29T00:09:47;50.33;;;28.98;;
64857;SDS011;51335;51.148;6.950;2023-01-29T00:10:17;48.78;;;28.45;;
64857;SDS011;51335;51.148;6.950;2023-01-29T00:10:47;50.30;;;28.70;;
64857;SDS011;51335;51.148;6.950;2023-01-29T00:11:17;53.60;;;29.17;;
64857;SDS011;51335;51.148;6.950;2023-01-29T00:11:48;54.20;;;29.73;;
64857;SDS011;51335;51.148;6.950;2023-01-29T00:12:18;53.22;;;29.95;;
64857;SDS011;51335;51.148;6.950;2023-01-29T00:12:48;56.58;;;30.55;;
64857;SDS011;51335;51.148;6.950;2023-01-29T00:13:18;52.10;;;29.33;;
64857;SDS011;51335;51.148;6.950;2023-01-29T00:13:49;53.78;;;29.70;;
64857;SDS011;51335;51.148;6.950;2023-01-29T00:14:19;50.70;;;28.85;;
64857;SDS011;51335;51.148;6.950;2023-01-29T00:14:49;54.75;;;29.98;;
64857;SDS011;51335;51.148;6.950;2023-01-29T00:15:19;55.95;;;29.73;;
64857;SDS011;51335;51.148;6.950;2023-01-29T00:15:53;52.15;;;28.98;;
64857;SDS011;51335;51.148;6.950;2023-01-29T00:16:27;51.83;;;28.98;;
64857;SDS011;51335;51.148;6.950;2023-01-29T00:16:58;50.03;;;28.90;;
64857;SDS011;51335;51.148;6.950;2023-01-29T00:17:28;51.58;;;29.17;;
64857;SDS011;51335;51.148;6.950;2023-01-29T00:17:58;50.10;;;29.25;;
64857;SDS011;51335;51.148;6.950;2023-01-29T00:18:28;53.47;;;28.63;;
64857;SDS011;51335;51.148;6.950;2023-01-29T00:19:00;56.53;;;30.25;;
64857;SDS011;51335;51.148;6.950;2023-01-29T00:19:31;53.80;;;29.85;;
64857;SDS011;51335;51.148;6.950;2023-01-29T00:20:01;49.33;;;28.60;;
64857;SDS011;51335;51.148;6.950;2023-01-29T00:20:31;49.55;;;27.73;;
64857;SDS011;51335;51.148;6.950;2023-01-29T00:21:01;52.22;;;29.42;;
64857;SDS011;51335;51.148;6.950;2023-01-29T00:21:32;51.88;;;28.48;;
64857;SDS011;51335;51.148;6.950;2023-01-29T00:22:02;52.38;;;28.77;;
64857;SDS011;51335;51.148;6.950;2023-01-29T00:22:32;57.95;;;30.55;;
64857;SDS011;51335;51.148;6.950;2023-01-29T00:23:03;54.28;;;29.23;;
64857;SDS011;51335;51.148;6.950;2023-01-29T00:23:33;55.28;;;29.02;;
64857;SDS011;51335;51.148;6.950;2023-01-29T00:24:03;52.33;;;29.83;;
64857;SDS011;51335;51.148;6.950;2023-01-29T00:24:33;51.40;;;28.60;;
64857;SDS011;51335;51.148;6.950;2023-01-29T00:25:04;51.30;;;29.13;;
64857;SDS011;51335;51.148;6.950;2023-01-29T00:25:34;55.30;;;29.17;;
64857;SDS011;51335;51.148;6.950;2023-01-29T00:26:05;53.80;;;29.90;;
64857;SDS011;51335;51.148;6.950;2023-01-29T00:26:36;49.22;;;27.85;;
64857;SDS011;51335;51.148;6.950;2023-01-29T00:27:06;47.40;;;26.75;;
64857;SDS011;51335;51.148;6.950;2023-01-29T00:27:36;49.38;;;27.73;;
64857;SDS011;51335;51.148;6.950;2023-01-29T00:28:06;48.63;;;27.98;;
64857;SDS011;51335;51.148;6.950;2023-01-29T00:28:37;45.85;;;27.45;;
64857;SDS011;51335;51.148;6.950;2023-01-29T00:29:07;52.95;;;29.25;;
64857;SDS011;51335;51.148;6.950;2023-01-29T00:29:37;52.63;;;27.80;;
64857;SDS011;51335;51.148;6.950;2023-01-29T00:30:08;47.78;;;26.92;;
64857;SDS011;51335;51.148;6.950;2023-01-29T00:30:39;51.88;;;28.77;;
64857;SDS011;51335;51.148;6.950;2023-01-29T00:31:10;51.30;;;28.60;;
64857;SDS011;51335;51.148;6.950;2023-01-29T00:31:43;50.75;;;28.95;;
64857;SDS011;51335;51.148;6.950;2023-01-29T00:32:14;52.25;;;29.98;;
64857;SDS011;51335;51.148;6.950;2023-01-29T00:32:44;48.08;;;27.75;;
64857;SDS011;51335;51.148;6.950;2023-01-29T00:33:14;53.15;;;30.48;;
64857;SDS011;51335;51.148;6.950;2023-01-29T00:33:45;49.05;;;28.35;;
64857;SDS011;51335;51.148;6.950;2023-01-29T00:34:15;56.33;;;30.40;;
64857;SDS011;51335;51.148;6.950;2023-01-29T00:34:46;58.30;;;31.25;;
64857;SDS011;51335;51.148;6.950;2023-01-29T00:35:16;52.38;;;28.75;;
64857;SDS011;51335;51.148;6.950;2023-01-29T00:35:46;56.40;;;30.10;;
64857;SDS011;51335;51.148;6.950;2023-01-29T00:36:17;51.65;;;28.88;;
64857;SDS011;51335;51.148;6.950;2023-01-29T00:36:49;50.38;;;29.23;;
64857;SDS011;51335;51.148;6.950;2023-01-29T00:37:19;55.45;;;28.98;;
64857;SDS011;51335;51.148;6.950;2023-01-29T00:37:49;51.97;;;29.25;;
64857;SDS011;51335;51.148;6.950;2023-01-29T00:38:19;53.50;;;29.38;;
64857;SDS011;51335;51.148;6.950;2023-01-29T00:38:53;51.50;;;29.77;;
64857;SDS011;51335;51.148;6.950;2023-01-29T00:39:25;54.80;;;30.35;;
64857;SDS011;51335;51.148;6.950;2023-01-29T00:39:55;55.80;;;29.17;;
64857;SDS011;51335;51.148;6.950;2023-01-29T00:40:25;54.97;;;29.58;;
64857;SDS011;51335;51.148;6.950;2023-01-29T00:40:56;58.05;;;30.77;;
64857;SDS011;51335;51.148;6.950;2023-01-29T00:41:30;53.85;;;29.63;;
64857;SDS011;51335;51.148;6.950;2023-01-29T00:42:01;57.38;;;30.42;;
64857;SDS011;51335;51.148;6.950;2023-01-29T00:42:31;52.13;;;28.52;;
64857;SDS011;51335;51.148;6.950;2023-01-29T00:43:02;56.58;;;30.67;;
64857;SDS011;51335;51.148;6.950;2023-01-29T00:43:32;57.20;;;30.17;;
64857;SDS011;51335;51.148;6.950;2023-01-29T00:44:02;53.60;;;30.02;;
64857;SDS011;51335;51.148;6.950;2023-01-29T00:44:32;58.13;;;31.20;;
64857;SDS011;51335;51.148;6.950;2023-01-29T00:45:03;55.20;;;30.13;;
64857;SDS011;51335;51.148;6.950;2023-01-29T00:45:33;56.47;;;31.38;;
64857;SDS011;51335;51.148;6.950;2023-01-29T00:46:04;56.53;;;31.75;;
64857;SDS011;51335;51.148;6.950;2023-01-29T00:46:34;55.13;;;31.25;;
64857;SDS011;51335;51.148;6.950;2023-01-29T00:47:05;56.38;;;30.45;;
64857;SDS011;51335;51.148;6.950;2023-01-29T00:47:35;53.47;;;29.98;;
64857;SDS011;51335;51.148;6.950;2023-01-29T00:48:05;56.47;;;30.83;;
64857;SDS011;51335;51.148;6.950;2023-01-29T00:48:36;56.30;;;31.05;;
64857;SDS011;51335;51.148;6.950;2023-01-29T00:49:06;54.58;;;29.10;;
64857;SDS011;51335;51.148;6.950;2023-01-29T00:49:37;57.63;;;30.17;;
64857;SDS011;51335;51.148;6.950;2023-01-29T00:50:08;56.35;;;29.52;;
64857;SDS011;51335;51.148;6.950;2023-01-29T00:50:40;55.53;;;31.05;;
64857;SDS011;51335;51.148;6.950;2023-01-29T00:51:10;55.20;;;30.67;;
64857;SDS011;51335;51.148;6.950;2023-01-29T00:51:40;53.95;;;31.15;;
64857;SDS011;51335;51.148;6.950;2023-01-29T00:52:11;55.90;;;31.00;;
64857;SDS011;51335;51.148;6.950;2023-01-29T00:52:41;60.20;;;31.73;;
64857;SDS011;51335;51.148;6.950;2023-01-29T00:53:11;59.55;;;32.45;;
64857;SDS011;51335;51.148;6.950;2023-01-29T00:53:41;60.67;;;32.78;;
64857;SDS011;51335;51.148;6.950;2023-01-29T00:54:12;62.85;;;32.28;;
64857;SDS011;51335;51.148;6.950;2023-01-29T00:54:42;62.55;;;32.85;;
64857;SDS011;51335;51.148;6.950;2023-01-29T00:55:12;71.60;;;34.00;;
64857;SDS011;51335;51.148;6.950;2023-01-29T00:55:43;66.88;;;32.97;;
64857;SDS011;51335;51.148;6.950;2023-01-29T00:56:13;67.75;;;33.28;;
64857;SDS011;51335;51.148;6.950;2023-01-29T00:56:44;62.60;;;32.53;;
64857;SDS011;51335;51.148;6.950;2023-01-29T00:57:14;71.95;;;34.05;;
64857;SDS011;51335;51.148;6.950;2023-01-29T00:57:44;69.05;;;32.65;;
64857;SDS011;51335;51.148;6.950;2023-01-29T00:58:15;61.20;;;31.88;;
64857;SDS011;51335;51.148;6.950;2023-01-29T00:58:45;60.50;;;31.60;;
64857;SDS011;51335;51.148;6.950;2023-01-29T00:59:15;61.50;;;31.08;;
64857;SDS011;51335;51.148;6.950;2023-01-29T00:59:45;56.90;;;30.52;;
64857;SDS011;51335;51.148;6.950;2023-01-29T01:00:16;56.25;;;28.77;;
64857;SDS011;51335;51.148;6.950;2023-01-29T01:00:47;59.03;;;31.10;;
64857;SDS011;51335;51.148;6.950;2023-01-29T01:01:18;56.60;;;30.70;;
64857;SDS011;51335;51.148;6.950;2023-01-29T01:01:49;59.20;;;30.55;;
64857;SDS011;51335;51.148;6.950;2023-01-29T01:02:19;63.38;;;31.13;;
64857;SDS011;51335;51.148;6.950;2023-01-29T01:02:49;56.05;;;30.05;;
64857;SDS011;51335;51.148;6.950;2023-01-29T01:03:20;62.88;;;30.67;;
64857;SDS011;51335;51.148;6.950;2023-01-29T01:03:50;55.08;;;30.30;;
64857;SDS011;51335;51.148;6.950;2023-01-29T01:04:20;58.85;;;31.65;;
64857;SDS011;51335;51.148;6.950;2023-01-29T01:04:50;56.60;;;29.27;;
64857;SDS011;51335;51.148;6.950;2023-01-29T01:05:21;56.75;;;30.40;;
64857;SDS011;51335;51.148;6.950;2023-01-29T01:06:01;62.30;;;31.42;;
64857;SDS011;51335;51.148;6.950;2023-01-29T01:06:36;58.13;;;29.23;;
64857;SDS011;51335;51.148;6.950;2023-01-29T01:07:07;61.40;;;29.40;;
64857;SDS011;51335;51.148;6.950;2023-01-29T01:07:37;57.22;;;29.05;;
64857;SDS011;51335;51.148;6.950;2023-01-29T01:08:08;61.08;;;30.92;;
64857;SDS011;51335;51.148;6.950;2023-01-29T01:08:39;56.38;;;29.23;;
64857;SDS011;51335;51.148;6.950;2023-01-29T01:09:09;56.65;;;29.80;;
64857;SDS011;51335;51.148;6.950;2023-01-29T01:09:40;57.47;;;29.90;;
64857;SDS011;51335;51.148;6.950;2023-01-29T01:10:14;57.50;;;29.25;;
64857;SDS011;51335;51.148;6.950;2023-01-29T01:10:47;64.07;;;30.20;;
64857;SDS011;51335;51.148;6.950;2023-01-29T01:11:17;52.95;;;28.80;;
64857;SDS011;51335;51.148;6.950;2023-01-29T01:11:47;54.28;;;29.85;;
64857;SDS011;51335;51.148;6.950;2023-01-29T01:12:18;54.22;;;29.60;;
64857;SDS011;51335;51.148;6.950;2023-01-29T01:13:04;57.58;;;30.50;;
64857;SDS011;51335;51.148;6.950;2023-01-29T01:13:35;53.00;;;27.63;;
64857;SDS011;51335;51.148;6.950;2023-01-29T01:14:05;49.97;;;27.95;;
64857;SDS011;51335;51.148;6.950;2023-01-29T01:14:35;56.67;;;29.33;;
64857;SDS011;51335;51.148;6.950;2023-01-29T01:15:06;54.75;;;28.75;;
64857;SDS011;51335;51.148;6.950;2023-01-29T01:15:37;52.53;;;28.88;;
64857;SDS011;51335;51.148;6.950;2023-01-29T01:16:09;49.50;;;27.67;;
64857;SDS011;51335;51.148;6.950;2023-01-29T01:16:41;51.65;;;29.08;;
64857;SDS011;51335;51.148;6.950;2023-01-29T01:17:11;53.33;;;28.42;;
64857;SDS011;51335;51.148;6.950;2023-01-29T01:17:42;54.00;;;28.73;;
64857;SDS011;51335;51.148;6.950;2023-01-29T01:18:12;50.70;;;27.70;;
64857;SDS011;51335;51.148;6.950;2023-01-29T01:18:42;54.15;;;27.80;;
64857;SDS011;51335;51.148;6.950;2023-01-29T01:19:13;52.95;;;29.42;;
64857;SDS011;51335;51.148;6.950;2023-01-29T01:19:47;53.72;;;29.15;;
64857;SDS011;51335;51.148;6.950;2023-01-29T01:20:17;51.88;;;29.30;;
64857;SDS011;51335;51.148;6.950;2023-01-29T01:20:48;56.28;;;30.50;;
64857;SDS011;51335;51.148;6.950;2023-01-29T01:21:18;61.28;;;31.23;;
64857;SDS011;51335;51.148;6.950;2023-01-29T01:21:48;54.03;;;29.73;;
64857;SDS011;51335;51.148;6.950;2023-01-29T01:22:18;53.90;;;29.88;;
64857;SDS011;51335;51.148;6.950;2023-01-29T01:22:49;59.22;;;30.90;;
64857;SDS011;51335;51.148;6.950;2023-01-29T01:23:19;54.95;;;30.35;;
64857;SDS011;51335;51.148;6.950;2023-01-29T01:23:49;57.92;;;28.50;;
64857;SDS011;51335;51.148;6.950;2023-01-29T01:24:20;51.17;;;28.70;;
64857;SDS011;51335;51.148;6.950;2023-01-29T01:24:50;53.92;;;30.33;;
64857;SDS011;51335;51.148;6.950;2023-01-29T01:25:23;55.33;;;29.60;;
64857;SDS011;51335;51.148;6.950;2023-01-29T01:25:54;56.20;;;29.77;;
64857;SDS011;51335;51.148;6.950;2023-01-29T01:26:25;58.53;;;31.15;;
64857;SDS011;51335;51.148;6.950;2023-01-29T01:26:55;62.00;;;31.15;;
64857;SDS011;51335;51.148;6.950;2023-01-29T01:27:25;57.63;;;31.48;;
64857;SDS011;51335;51.148;6.950;2023-01-29T01:27:56;65.93;;;31.85;;
64857;SDS011;51335;51.148;6.950;2023-01-29T01:28:27;61.70;;;30.48;;
64857;SDS011;51335;51.148;6.950;2023-01-29T01:28:58;56.92;;;30.17;;
64857;SDS011;51335;51.148;6.950;2023-01-29T01:29:28;61.97;;;31.73;;
64857;SDS011;51335;51.148;6.950;2023-01-29T01:29:59;62.25;;;32.67;;
64857;SDS011;51335;51.148;6.950;2023-01-29T01:30:29;55.33;;;30.45;;
64857;SDS011;51335;51.148;6.950;2023-01-29T01:31:06;59.47;;;31.75;;
64857;SDS011;51335;51.148;6.950;2023-01-29T01:31:37;57.95;;;29.90;;
64857;SDS011;51335;51.148;6.950;2023-01-29T01:32:08;56.75;;;29.83;;
64857;SDS011;51335;51.148;6.950;2023-01-29T01:32:38;55.95;;;28.58;;
64857;SDS011;51335;51.148;6.950;2023-01-29T01:33:08;58.08;;;30.85;;
64857;SDS011;51335;51.148;6.950;2023-01-29T01:33:39;54.55;;;29.80;;
64857;SDS011;51335;51.148;6.950;2023-01-29T01:34:09;54.25;;;29.58;;
64857;SDS011;51335;51.148;6.950;2023-01-29T01:34:40;60.13;;;30.98;;
64857;SDS011;51335;51.148;6.950;2023-01-29T01:35:10;58.60;;;31.02;;
64857;SDS011;51335;51.148;6.950;2023-01-29T01:35:41;54.03;;;31.08;;
64857;SDS011;51335;51.148;6.950;2023-01-29T01:36:11;58.60;;;30.42;;
64857;SDS011;51335;51.148;6.950;2023-01-29T01:36:41;60.50;;;31.77;;
64857;SDS011;51335;51.148;6.950;2023-01-29T01:37:12;56.83;;;31.40;;
64857;SDS011;51335;51.148;6.950;2023-01-29T01:37:42;55.22;;;29.95;;
64857;SDS011;51335;51.148;6.950;2023-01-29T01:38:12;53.05;;;29.20;;
64857;SDS011;51335;51.148;6.950;2023-01-29T01:38:43;57.45;;;30.58;;
64857;SDS011;51335;51.148;6.950;2023-01-29T01:39:13;56.10;;;29.95;;
64857;SDS011;51335;51.148;6.950;2023-01-29T01:39:43;51.17;;;28.48;;
64857;SDS011;51335;51.148;6.950;2023-01-29T01:40:15;57.33;;;30.60;;
64857;SDS011;51335;51.148;6.950;2023-01-29T01:40:48;55.45;;;29.48;;
64857;SDS011;51335;51.148;6.950;2023-01-29T01:41:20;56.03;;;30.10;;
64857;SDS011;51335;51.148;6.950;2023-01-29T01:41:51;56.03;;;29.85;;
64857;SDS011;51335;51.148;6.950;2023-01-29T01:42:28;57.70;;;30.10;;
64857;SDS011;51335;51.148;6.950;2023-01-29T01:42:59;55.45;;;29.75;;
64857;SDS011;51335;51.148;6.950;2023-01-29T01:43:45;57.10;;;29.70;;
64857;SDS011;51335;51.148;6.950;2023-01-29T01:45:29;53.83;;;26.52;;
64857;SDS011;51335;51.148;6.950;2023-01-29T01:46:02;54.10;;;27.05;;
64857;SDS011;51335;51.148;6.950;2023-01-29T01:46:35;50.63;;;26.65;;
64857;SDS011;51335;51.148;6.950;2023-01-29T01:47:06;52.60;;;27.88;;
64857;SDS011;51335;51.148;6.950;2023-01-29T01:47:38;52.70;;;28.60;;
64857;SDS011;51335;51.148;6.950;2023-01-29T01:48:16;56.75;;;29.55;;
64857;SDS011;51335;51.148;6.950;2023-01-29T01:48:58;56.38;;;28.60;;
64857;SDS011;51335;51.148;6.950;2023-01-29T01:49:33;54.45;;;28.35;;
64857;SDS011;51335;51.148;6.950;2023-01-29T01:50:05;54.15;;;28.42;;
64857;SDS011;51335;51.148;6.950;2023-01-29T01:50:40;55.58;;;29.50;;
64857;SDS011;51335;51.148;6.950;2023-01-29T01:51:17;53.83;;;28.80;;
64857;SDS011;51335;51.148;6.950;2023-01-29T01:51:49;51.40;;;29.20;;
64857;SDS011;51335;51.148;6.950;2023-01-29T01:52:21;51.83;;;28.15;;
64857;SDS011;51335;51.148;6.950;2023-01-29T01:52:53;61.22;;;30.95;;
64857;SDS011;51335;51.148;6.950;2023-01-29T01:54:09;52.58;;;29.63;;
64857;SDS011;51335;51.148;6.950;2023-01-29T01:54:40;52.47;;;26.42;;
64857;SDS011;51335;51.148;6.950;2023-01-29T01:55:12;52.38;;;27.80;;
64857;SDS011;51335;51.148;6.950;2023-01-29T01:55:46;54.92;;;27.90;;
64857;SDS011;51335;51.148;6.950;2023-01-29T01:56:26;61.13;;;29.17;;
64857;SDS011;51335;51.148;6.950;2023-01-29T01:57:05;56.28;;;29.25;;
64857;SDS011;51335;51.148;6.950;2023-01-29T01:57:38;57.65;;;28.33;;
64857;SDS011;51335;51.148;6.950;2023-01-29T01:58:11;57.20;;;30.17;;
64857;SDS011;51335;51.148;6.950;2023-01-29T01:58:47;55.97;;;27.73;;
64857;SDS011;51335;51.148;6.950;2023-01-29T01:59:23;55.30;;;28.50;;
64857;SDS011;51335;51.148;6.950;2023-01-29T01:59:55;60.75;;;28.60;;
64857;SDS011;51335;51.148;6.950;2023-01-29T02:00:29;55.22;;;28.55;;
64857;SDS011;51335;51.148;6.950;2023-01-29T02:01:00;57.20;;;29.58;;
64857;SDS011;51335;51.148;6.950;2023-01-29T02:01:31;56.00;;;29.23;;
64857;SDS011;51335;51.148;6.950;2023-01-29T02:02:02;57.25;;;28.85;;
64857;SDS011;51335;51.148;6.950;2023-01-29T02:02:33;53.10;;;27.30;;
64857;SDS011;51335;51.148;6.950;2023-01-29T02:03:03;59.75;;;29.58;;
64857;SDS011;51335;51.148;6.950;2023-01-29T02:03:38;57.47;;;29.13;;
64857;SDS011;51335;51.148;6.950;2023-01-29T02:04:18;50.42;;;27.83;;
64857;SDS011;51335;51.148;6.950;2023-01-29T02:04:51;55.78;;;28.25;;
64857;SDS011;51335;51.148;6.950;2023-01-29T02:05:22;56.30;;;28.42;;
64857;SDS011;51335;51.148;6.950;2023-01-29T02:05:53;57.30;;;29.38;;
64857;SDS011;51335;51.148;6.950;2023-01-29T02:06:26;56.88;;;28.55;;
64857;SDS011;51335;51.148;6.950;2023-01-29T02:06:56;54.25;;;29.02;;
64857;SDS011;51335;51.148;6.950;2023-01-29T02:07:29;51.70;;;28.40;;
64857;SDS011;51335;51.148;6.950;2023-01-29T02:07:59;61.20;;;30.08;;
64857;SDS011;51335;51.148;6.950;2023-01-29T02:08:44;55.83;;;29.42;;
64857;SDS011;51335;51.148;6.950;2023-01-29T02:09:22;53.70;;;25.25;;
64857;SDS011;51335;51.148;6.950;2023-01-29T02:10:07;55.08;;;27.90;;
64857;SDS011;51335;51.148;6.950;2023-01-29T02:10:42;52.72;;;25.92;;
64857;SDS011;51335;51.148;6.950;2023-01-29T02:11:14;54.00;;;27.80;;
64857;SDS011;51335;51.148;6.950;2023-01-29T02:11:45;48.90;;;27.17;;
64857;SDS011;51335;51.148;6.950;2023-01-29T02:12:15;54.22;;;28.23;;
64857;SDS011;51335;51.148;6.950;2023-01-29T02:12:46;50.25;;;27.38;;
64857;SDS011;51335;51.148;6.950;2023-01-29T02:13:16;54.35;;;28.00;;
64857;SDS011;51335;51.148;6.950;2023-01-29T02:13:47;49.53;;;27.55;;
64857;SDS011;51335;51.148;6.950;2023-01-29T02:14:18;54.15;;;27.90;;
64857;SDS011;51335;51.148;6.950;2023-01-29T02:14:49;51.72;;;29.20;;
64857;SDS011;51335;51.148;6.950;2023-01-29T02:15:20;53.35;;;27.48;;
64857;SDS011;51335;51.148;6.950;2023-01-29T02:15:50;49.47;;;26.73;;
64857;SDS011;51335;51.148;6.950;2023-01-29T02:16:21;53.65;;;27.80;;
64857;SDS011;51335;51.148;6.950;2023-01-29T02:16:52;49.17;;;27.13;;
64857;SDS011;51335;51.148;6.950;2023-01-29T02:17:22;49.47;;;27.05;;
64857;SDS011;51335;51.148;6.950;2023-01-29T02:17:52;52.67;;;28.42;;
64857;SDS011;51335;51.148;6.950;2023-01-29T02:18:23;52.85;;;27.85;;
64857;SDS011;51335;51.148;6.950;2023-01-29T02:18:53;49.92;;;26.30;;
64857;SDS011;51335;51.148;6.950;2023-01-29T02:20:23;45.72;;;24.23;;
64857;SDS011;51335;51.148;6.950;2023-01-29T02:21:02;46.20;;;25.30;;
64857;SDS011;51335;51.148;6.950;2023-01-29T02:21:58;45.97;;;25.98;;
64857;SDS011;51335;51.148;6.950;2023-01-29T02:23:13;46.90;;;23.73;;
64857;SDS011;51335;51.148;6.950;2023-01-29T02:28:31;54.60;;;26.35;;
64857;SDS011;51335;51.148;6.950;2023-01-29T02:30:02;48.75;;;24.55;;
64857;SDS011;51335;51.148;6.950;2023-01-29T02:30:58;48.65;;;25.25;;
64857;SDS011;51335;51.148;6.950;2023-01-29T02:31:43;49.38;;;23.77;;
64857;SDS011;51335;51.148;6.950;2023-01-29T02:32:40;48.13;;;24.45;;
64857;SDS011;51335;51.148;6.950;2023-01-29T02:34:51;55.70;;;26.33;;
64857;SDS011;51335;51.148;6.950;2023-01-29T02:37:02;50.60;;;25.67;;
64857;SDS011;51335;51.148;6.950;2023-01-29T02:39:02;49.17;;;23.85;;
64857;SDS011;51335;51.148;6.950;2023-01-29T02:40:16;51.08;;;26.42;;
64857;SDS011;51335;51.148;6.950;2023-01-29T02:41:02;48.63;;;23.73;;
64857;SDS011;51335;51.148;6.950;2023-01-29T02:41:45;48.85;;;25.42;;
64857;SDS011;51335;51.148;6.950;2023-01-29T02:42:26;47.60;;;25.55;;
64857;SDS011;51335;51.148;6.950;2023-01-29T02:44:23;47.83;;;25.67;;
64857;SDS011;51335;51.148;6.950;2023-01-29T02:45:49;47.22;;;24.20;;
64857;SDS011;51335;51.148;6.950;2023-01-29T02:47:26;54.15;;;26.00;;
64857;SDS011;51335;51.148;6.950;2023-01-29T02:48:01;49.20;;;25.58;;
64857;SDS011;51335;51.148;6.950;2023-01-29T02:48:39;53.78;;;25.92;;
64857;SDS011;51335;51.148;6.950;2023-01-29T02:49:48;49.67;;;25.85;;
64857;SDS011;51335;51.148;6.950;2023-01-29T02:50:31;54.80;;;28.48;;
64857;SDS011;51335;51.148;6.950;2023-01-29T02:51:46;46.83;;;24.23;;
64857;SDS011;51335;51.148;6.950;2023-01-29T02:52:21;50.65;;;25.42;;
64857;SDS011;51335;51.148;6.950;2023-01-29T02:53:34;54.78;;;26.02;;
64857;SDS011;51335;51.148;6.950;2023-01-29T02:54:19;52.90;;;26.75;;
64857;SDS011;51335;51.148;6.950;2023-01-29T02:55:56;49.63;;;26.02;;
64857;SDS011;51335;51.148;6.950;2023-01-29T02:56:17;46.83;;;24.10;;
64857;SDS011;51335;51.148;6.950;2023-01-29T02:56:53;52.63;;;25.40;;
64857;SDS011;51335;51.148;6.950;2023-01-29T02:57:31;57.50;;;26.60;;
64857;SDS011;51335;51.148;6.950;2023-01-29T02:58:12;54.15;;;27.23;;
64857;SDS011;51335;51.148;6.950;2023-01-29T02:59:11;51.35;;;25.30;;
64857;SDS011;51335;51.148;6.950;2023-01-29T02:59:48;53.20;;;23.65;;
64857;SDS011;51335;51.148;6.950;2023-01-29T03:00:26;50.70;;;25.95;;
64857;SDS011;51335;51.148;6.950;2023-01-29T03:01:13;54.45;;;26.70;;
64857;SDS011;51335;51.148;6.950;2023-01-29T03:01:52;48.55;;;24.73;;
64857;SDS011;51335;51.148;6.950;2023-01-29T03:02:32;54.22;;;26.08;;
64857;SDS011;51335;51.148;6.950;2023-01-29T03:03:49;50.85;;;25.73;;
64857;SDS011;51335;51.148;6.950;2023-01-29T03:04:28;53.95;;;26.42;;
64857;SDS011;51335;51.148;6.950;2023-01-29T03:05:03;52.83;;;27.38;;
64857;SDS011;51335;51.148;6.950;2023-01-29T03:06:00;53.72;;;27.38;;
64857;SDS011;51335;51.148;6.950;2023-01-29T03:06:37;50.55;;;25.92;;
64857;SDS011;51335;51.148;6.950;2023-01-29T03:07:13;52.22;;;26.13;;
64857;SDS011;51335;51.148;6.950;2023-01-29T03:07:48;50.78;;;26.27;;
64857;SDS011;51335;51.148;6.950;2023-01-29T03:08:39;49.58;;;25.85;;
64857;SDS011;51335;51.148;6.950;2023-01-29T03:09:17;49.00;;;25.08;;
64857;SDS011;51335;51.148;6.950;2023-01-29T03:09:51;51.05;;;25.60;;
64857;SDS011;51335;51.148;6.950;2023-01-29T03:10:33;49.70;;;25.45;;
64857;SDS011;51335;51.148;6.950;2023-01-29T03:11:08;50.65;;;26.42;;
64857;SDS011;51335;51.148;6.950;2023-01-29T03:11:40;50.10;;;26.38;;
64857;SDS011;51335;51.148;6.950;2023-01-29T03:12:16;52.97;;;26.60;;
64857;SDS011;51335;51.148;6.950;2023-01-29T03:12:56;50.58;;;26.75;;
64857;SDS011;51335;51.148;6.950;2023-01-29T03:13:39;47.22;;;25.65;;
64857;SDS011;51335;51.148;6.950;2023-01-29T03:14:33;50.58;;;25.27;;
64857;SDS011;51335;51.148;6.950;2023-01-29T03:15:15;49.22;;;24.90;;
64857;SDS011;51335;51.148;6.950;2023-01-29T03:15:53;48.80;;;23.83;;
64857;SDS011;51335;51.148;6.950;2023-01-29T03:17:07;49.22;;;25.15;;
64857;SDS011;51335;51.148;6.950;2023-01-29T03:17:44;53.10;;;27.83;;
64857;SDS011;51335;51.148;6.950;2023-01-29T03:18:18;50.50;;;26.83;;
64857;SDS011;51335;51.148;6.950;2023-01-29T03:19:58;43.97;;;23.25;;
64857;SDS011;51335;51.148;6.950;2023-01-29T03:20:30;54.58;;;26.65;;
64857;SDS011;51335;51.148;6.950;2023-01-29T03:21:05;53.72;;;28.05;;
64857;SDS011;51335;51.148;6.950;2023-01-29T03:21:40;52.95;;;27.02;;
64857;SDS011;51335;51.148;6.950;2023-01-29T03:22:13;52.50;;;27.13;;
64857;SDS011;51335;51.148;6.950;2023-01-29T03:22:46;54.55;;;26.65;;
64857;SDS011;51335;51.148;6.950;2023-01-29T03:23:24;50.97;;;26.95;;
64857;SDS011;51335;51.148;6.950;2023-01-29T03:23:56;54.20;;;27.40;;
64857;SDS011;51335;51.148;6.950;2023-01-29T03:25:19;51.70;;;26.08;;
64857;SDS011;51335;51.148;6.950;2023-01-29T03:25:52;46.25;;;24.17;;
64857;SDS011;51335;51.148;6.950;2023-01-29T03:26:27;56.15;;;25.77;;
64857;SDS011;51335;51.148;6.950;2023-01-29T03:26:58;52.58;;;26.50;;
64857;SDS011;51335;51.148;6.950;2023-01-29T03:27:36;56.00;;;27.52;;
64857;SDS011;51335;51.148;6.950;2023-01-29T03:28:40;45.83;;;23.30;;
64857;SDS011;51335;51.148;6.950;2023-01-29T03:29:13;47.72;;;24.23;;
64857;SDS011;51335;51.148;6.950;2023-01-29T03:29:43;53.33;;;26.35;;
64857;SDS011;51335;51.148;6.950;2023-01-29T03:30:15;51.92;;;27.05;;
64857;SDS011;51335;51.148;6.950;2023-01-29T03:30:47;54.42;;;27.77;;
64857;SDS011;51335;51.148;6.950;2023-01-29T03:31:21;51.90;;;27.27;;
64857;SDS011;51335;51.148;6.950;2023-01-29T03:31:53;53.70;;;27.45;;
64857;SDS011;51335;51.148;6.950;2023-01-29T03:32:25;57.67;;;28.10;;
64857;SDS011;51335;51.148;6.950;2023-01-29T03:32:58;54.40;;;28.15;;
64857;SDS011;51335;51.148;6.950;2023-01-29T03:33:35;52.72;;;27.25;;
64857;SDS011;51335;51.148;6.950;2023-01-29T03:34:20;51.38;;;26.65;;
64857;SDS011;51335;51.148;6.950;2023-01-29T03:34:55;50.47;;;26.67;;
64857;SDS011;51335;51.148;6.950;2023-01-29T03:35:27;56.33;;;27.50;;
64857;SDS011;51335;51.148;6.950;2023-01-29T03:36:03;51.75;;;26.92;;
64857;SDS011;51335;51.148;6.950;2023-01-29T03:36:50;53.50;;;27.25;;
64857;SDS011;51335;51.148;6.950;2023-01-29T03:38:15;47.63;;;25.08;;